createdAt,value
2023-05-21T00:00:53.446Z,100.00
2023-05-21T00:03:26.251Z,100.00
2023-05-21T00:05:55.874Z,100.00
2023-05-21T00:08:26.065Z,99.81
2023-05-21T00:13:38.264Z,99.52
2023-05-21T00:16:12.713Z,100.00
2023-05-21T00:18:43.495Z,100.00
2023-05-21T00:21:13.752Z,100.00
2023-05-21T00:23:44.168Z,100.00
2023-05-21T00:26:18.795Z,99.77
2023-05-21T00:28:51.928Z,99.69
2023-05-21T00:31:21.505Z,99.44
2023-05-21T00:33:50.741Z,100.00
2023-05-21T00:36:23.804Z,100.00
2023-05-21T00:38:53.691Z,99.64
2023-05-21T00:41:30.090Z,99.71
2023-05-21T00:44:03.132Z,99.95
2023-05-21T00:46:39.284Z,100.00
2023-05-21T00:49:08.817Z,100.00
2023-05-21T00:51:38.402Z,99.82
2023-05-21T00:54:18.460Z,100.00
2023-05-21T00:56:48.854Z,100.00
2023-05-21T00:59:26.486Z,100.00
2023-05-21T01:02:03.966Z,100.00
2023-05-21T01:04:38.896Z,100.00
2023-05-21T01:07:10.243Z,100.00
2023-05-21T01:09:45.194Z,100.00
2023-05-21T01:12:20.715Z,100.00
2023-05-21T01:14:52.327Z,100.00
2023-05-21T01:17:23.992Z,100.00
2023-05-21T01:19:59.930Z,100.00
2023-05-21T01:22:33.577Z,100.00
2023-05-21T01:25:12.790Z,100.00
2023-05-21T01:27:42.143Z,100.00
2023-05-21T01:30:19.005Z,100.00
2023-05-21T01:32:57.026Z,100.00
2023-05-21T01:35:46.436Z,100.00
2023-05-21T01:38:22.340Z,100.00
2023-05-21T01:40:58.467Z,100.00
2023-05-21T01:43:31.437Z,100.00
2023-05-21T01:46:02.800Z,100.00
2023-05-21T01:48:33.168Z,100.00
2023-05-21T01:51:08.564Z,100.00
2023-05-21T01:53:38.449Z,100.00
2023-05-21T01:56:11.022Z,100.00
2023-05-21T01:58:40.504Z,100.00
2023-05-21T02:01:09.819Z,100.00
2023-05-21T02:03:39.620Z,100.00
2023-05-21T02:06:09.022Z,100.00
2023-05-21T02:08:38.317Z,100.00
2023-05-21T02:11:10.100Z,100.00
2023-05-21T02:13:47.321Z,100.00
2023-05-21T02:16:16.892Z,100.00
2023-05-21T02:18:47.844Z,100.00
2023-05-21T02:21:22.279Z,100.00
2023-05-21T02:23:51.830Z,100.00
2023-05-21T02:26:23.943Z,100.00
2023-05-21T02:28:55.711Z,100.00
2023-05-21T02:31:25.426Z,100.00
2023-05-21T02:33:54.733Z,100.00
2023-05-21T02:36:25.021Z,100.00
2023-05-21T02:38:54.425Z,100.00
2023-05-21T02:41:26.662Z,100.00
2023-05-21T02:43:57.473Z,100.00
2023-05-21T02:46:27.094Z,100.00
2023-05-21T02:48:57.298Z,100.00
2023-05-21T02:51:29.765Z,100.00
2023-05-21T02:53:59.233Z,100.00
2023-05-21T02:56:30.977Z,100.00
2023-05-21T02:59:02.087Z,100.00
2023-05-21T03:01:31.548Z,100.00
2023-05-21T03:04:06.363Z,100.00
2023-05-21T03:09:11.411Z,100.00
2023-05-21T03:11:42.701Z,100.00
2023-05-21T03:14:17.080Z,100.00
2023-05-21T03:16:51.807Z,100.00
2023-05-21T03:19:21.341Z,100.00
2023-05-21T03:21:50.947Z,100.00
2023-05-21T03:24:20.377Z,100.00
2023-05-21T03:26:58.354Z,100.00
2023-05-21T03:29:27.969Z,100.00
2023-05-21T03:31:59.822Z,100.00
2023-05-21T03:34:29.924Z,100.00
2023-05-21T03:36:59.439Z,100.00
2023-05-21T03:39:30.041Z,100.00
2023-05-21T03:42:08.513Z,100.00
2023-05-21T03:44:44.524Z,100.00
2023-05-21T03:47:49.211Z,100.00
2023-05-21T03:50:19.008Z,100.00
2023-05-21T03:52:48.633Z,100.00
2023-05-21T03:55:18.079Z,100.00
2023-05-21T03:57:49.751Z,100.00
2023-05-21T04:00:25.419Z,100.00
2023-05-21T04:02:54.909Z,100.00
2023-05-21T04:05:24.432Z,99.79
2023-05-21T04:07:54.025Z,100.00
2023-05-21T04:10:23.930Z,99.67
2023-05-21T04:13:00.995Z,99.36
2023-05-21T04:15:30.595Z,99.11
2023-05-21T04:18:00.792Z,98.69
2023-05-21T04:20:30.139Z,98.33
2023-05-21T04:22:59.362Z,97.84
2023-05-21T04:25:33.886Z,97.39
2023-05-21T04:28:10.831Z,97.05
2023-05-21T04:30:40.361Z,96.25
2023-05-21T04:33:10.429Z,95.12
2023-05-21T04:35:50.125Z,94.68
2023-05-21T04:38:20.487Z,93.44
2023-05-21T04:40:52.709Z,93.30
2023-05-21T04:43:26.593Z,92.63
2023-05-21T04:46:03.709Z,92.05
2023-05-21T04:48:34.877Z,91.86
2023-05-21T04:51:05.518Z,91.82
2023-05-21T04:53:35.775Z,91.32
2023-05-21T04:56:05.379Z,90.98
2023-05-21T04:58:36.891Z,90.33
2023-05-21T05:01:12.342Z,89.71
2023-05-21T05:03:42.095Z,88.97
2023-05-21T05:06:11.944Z,88.40
2023-05-21T05:08:42.168Z,87.67
2023-05-21T05:11:11.880Z,86.69
2023-05-21T05:13:44.012Z,85.39
2023-05-21T05:16:24.834Z,84.71
2023-05-21T05:18:54.971Z,84.26
2023-05-21T05:21:24.927Z,84.18
2023-05-21T05:23:54.330Z,84.35
2023-05-21T05:26:28.530Z,84.91
2023-05-21T05:29:00.770Z,85.75
2023-05-21T05:31:35.867Z,86.18
2023-05-21T05:34:05.804Z,86.14
2023-05-21T05:36:35.570Z,86.44
2023-05-21T05:39:10.915Z,86.72
2023-05-21T05:41:42.426Z,86.94
2023-05-21T05:46:50.408Z,85.27
2023-05-21T05:49:19.642Z,82.86
2023-05-21T05:51:54.182Z,82.45
2023-05-21T05:54:24.203Z,82.00
2023-05-21T05:56:53.720Z,81.03
2023-05-21T05:59:25.967Z,78.11
2023-05-21T06:02:02.187Z,76.07
2023-05-21T06:04:41.693Z,75.16
2023-05-21T06:07:11.251Z,74.72
2023-05-21T06:09:40.715Z,74.72
2023-05-21T06:12:16.021Z,74.68
2023-05-21T06:14:52.472Z,74.58
2023-05-21T06:17:27.412Z,72.98
2023-05-21T06:19:58.607Z,71.94
2023-05-21T06:22:33.770Z,70.50
2023-05-21T06:25:03.432Z,70.18
2023-05-21T06:27:34.799Z,69.42
2023-05-21T06:30:09.299Z,68.20
2023-05-21T06:32:39.406Z,68.19
2023-05-21T06:35:09.545Z,68.68
2023-05-21T06:37:39.106Z,68.23
2023-05-21T06:40:15.894Z,68.83
2023-05-21T06:42:45.763Z,69.17
2023-05-21T06:45:23.255Z,68.02
2023-05-21T06:47:56.414Z,67.91
2023-05-21T06:50:26.332Z,66.79
2023-05-21T06:52:56.374Z,66.37
2023-05-21T06:55:25.929Z,65.72
2023-05-21T06:58:15.030Z,65.06
2023-05-21T07:01:01.767Z,63.81
2023-05-21T07:03:31.997Z,64.45
2023-05-21T07:06:01.461Z,63.39
2023-05-21T07:08:31.325Z,63.59
2023-05-21T07:11:01.871Z,63.60
2023-05-21T07:13:32.880Z,63.27
2023-05-21T07:16:04.301Z,62.20
2023-05-21T07:18:53.899Z,60.44
2023-05-21T07:21:28.770Z,61.30
2023-05-21T07:26:42.371Z,63.15
2023-05-21T07:29:30.462Z,63.43
2023-05-21T07:32:02.011Z,63.49
2023-05-21T07:34:32.756Z,63.35
2023-05-21T07:37:20.831Z,63.45
2023-05-21T07:39:50.700Z,63.40
2023-05-21T07:42:19.970Z,63.57
2023-05-21T07:45:04.744Z,64.01
2023-05-21T07:47:41.173Z,63.07
2023-05-21T07:50:11.888Z,62.11
2023-05-21T07:52:46.273Z,62.40
2023-05-21T07:55:15.898Z,61.55
2023-05-21T07:57:46.234Z,60.33
2023-05-21T08:00:36.693Z,59.84
2023-05-21T08:03:08.551Z,59.00
2023-05-21T08:05:38.486Z,58.73
2023-05-21T08:08:08.682Z,59.09
2023-05-21T08:10:38.604Z,59.32
2023-05-21T08:13:08.636Z,59.52
2023-05-21T08:15:38.214Z,58.12
2023-05-21T08:18:14.989Z,57.22
2023-05-21T08:20:46.810Z,57.21
2023-05-21T08:23:17.883Z,57.06
2023-05-21T08:25:53.275Z,57.94
2023-05-21T08:28:24.241Z,57.96
2023-05-21T08:30:54.537Z,58.35
2023-05-21T08:33:27.578Z,58.24
2023-05-21T08:35:57.182Z,56.87
2023-05-21T08:38:31.911Z,57.04
2023-05-21T08:41:25.211Z,54.53
2023-05-21T08:43:58.530Z,53.74
2023-05-21T08:46:34.202Z,52.80
2023-05-21T08:49:06.239Z,53.27
2023-05-21T08:51:41.412Z,54.30
2023-05-21T08:54:11.448Z,53.59
2023-05-21T08:56:46.634Z,53.99
2023-05-21T08:59:28.855Z,54.10
2023-05-21T09:02:00.142Z,53.06
2023-05-21T09:04:39.080Z,52.63
2023-05-21T09:07:09.205Z,52.76
2023-05-21T09:10:05.658Z,52.49
2023-05-21T09:12:41.968Z,51.37
2023-05-21T09:15:18.218Z,51.66
2023-05-21T09:17:49.676Z,52.75
2023-05-21T09:20:39.980Z,53.75
2023-05-21T09:23:16.443Z,53.15
2023-05-21T09:25:53.477Z,52.86
2023-05-21T09:28:31.936Z,53.40
2023-05-21T09:31:05.776Z,53.16
2023-05-21T09:36:13.518Z,54.04
2023-05-21T09:38:42.610Z,53.97
2023-05-21T09:41:12.008Z,53.41
2023-05-21T09:43:44.838Z,53.48
2023-05-21T09:46:15.419Z,52.95
2023-05-21T09:48:46.141Z,51.59
2023-05-21T09:51:21.367Z,50.44
2023-05-21T09:53:59.929Z,50.63
2023-05-21T09:56:31.826Z,50.78
2023-05-21T09:59:03.975Z,50.81
2023-05-21T10:01:34.787Z,50.99
2023-05-21T10:04:13.988Z,50.25
2023-05-21T10:06:49.653Z,49.36
2023-05-21T10:09:22.360Z,48.72
2023-05-21T10:11:59.389Z,48.39
2023-05-21T10:14:33.978Z,47.80
2023-05-21T10:17:03.807Z,47.16
2023-05-21T10:19:36.157Z,46.55
2023-05-21T10:22:09.504Z,45.13
2023-05-21T10:24:45.704Z,45.29
2023-05-21T10:27:16.039Z,46.77
2023-05-21T10:29:51.364Z,46.99
2023-05-21T10:32:23.728Z,47.35
2023-05-21T10:34:56.687Z,47.43
2023-05-21T10:37:29.356Z,46.88
2023-05-21T10:40:04.352Z,46.40
2023-05-21T10:43:00.726Z,45.50
2023-05-21T10:45:38.537Z,44.43
2023-05-21T10:48:25.868Z,44.62
2023-05-21T10:51:23.762Z,44.42
2023-05-21T10:54:19.782Z,43.93
2023-05-21T10:59:42.910Z,44.21
2023-05-21T11:02:19.997Z,43.72
2023-05-21T11:05:00.697Z,43.54
2023-05-21T11:10:40.269Z,42.43
2023-05-21T11:13:12.962Z,42.67
2023-05-21T11:16:09.785Z,42.93
2023-05-21T11:19:01.129Z,42.27
2023-05-21T11:21:36.697Z,42.02
2023-05-21T11:24:27.961Z,40.92
2023-05-21T11:27:07.157Z,40.33
2023-05-21T11:29:45.665Z,40.17
2023-05-21T11:32:20.311Z,40.58
2023-05-21T11:34:50.942Z,40.04
2023-05-21T11:37:46.262Z,40.05
2023-05-21T11:40:26.185Z,38.93
2023-05-21T11:42:58.760Z,37.98
2023-05-21T11:45:32.832Z,37.98
2023-05-21T11:48:02.608Z,38.04
2023-05-21T11:50:50.977Z,38.09
2023-05-21T11:53:48.149Z,38.46
2023-05-21T11:56:18.510Z,38.60
2023-05-21T11:58:49.798Z,38.84
2023-05-21T12:01:27.534Z,39.32
2023-05-21T12:03:57.139Z,39.59
2023-05-21T12:06:31.130Z,39.51
2023-05-21T12:09:00.703Z,39.23
2023-05-21T12:11:30.236Z,38.84
2023-05-21T12:14:23.651Z,39.22
2023-05-21T12:16:53.289Z,39.57
2023-05-21T12:19:28.728Z,39.70
2023-05-21T12:22:09.697Z,39.26
2023-05-21T12:24:40.147Z,39.40
2023-05-21T12:27:12.980Z,40.08
2023-05-21T12:29:46.907Z,39.63
2023-05-21T12:32:23.097Z,39.51
2023-05-21T12:37:33.271Z,38.36
2023-05-21T12:40:09.638Z,38.08
2023-05-21T12:42:39.759Z,38.26
2023-05-21T12:51:21.040Z,38.36
2023-05-21T12:53:50.633Z,38.91
2023-05-21T12:56:19.969Z,39.48
2023-05-21T12:58:54.472Z,39.08
2023-05-21T13:01:24.091Z,39.83
2023-05-21T13:03:53.589Z,39.57
2023-05-21T13:06:31.263Z,39.34
2023-05-21T13:09:00.598Z,39.46
2023-05-21T13:11:29.946Z,39.50
2023-05-21T13:13:59.393Z,39.95
2023-05-21T13:16:28.815Z,39.96
2023-05-21T13:18:58.611Z,40.61
2023-05-21T13:21:29.867Z,39.92
2023-05-21T13:24:04.280Z,40.53
2023-05-21T13:26:33.632Z,40.02
2023-05-21T13:29:03.206Z,40.53
2023-05-21T13:31:32.548Z,40.73
2023-05-21T13:34:07.534Z,41.88
2023-05-21T13:36:39.444Z,43.26
2023-05-21T13:39:09.605Z,43.33
2023-05-21T13:41:47.788Z,43.63
2023-05-21T13:44:22.438Z,44.09
2023-05-21T13:46:52.067Z,44.68
2023-05-21T13:49:21.586Z,45.56
2023-05-21T13:52:00.436Z,46.15
2023-05-21T13:54:31.466Z,46.80
2023-05-21T13:57:06.053Z,46.89
2023-05-21T13:59:35.560Z,46.58
2023-05-21T14:02:05.242Z,46.09
2023-05-21T14:04:35.345Z,45.66
2023-05-21T14:07:08.585Z,45.71
2023-05-21T14:09:48.711Z,45.30
2023-05-21T14:12:18.776Z,45.13
2023-05-21T14:14:49.474Z,44.94
2023-05-21T14:17:19.040Z,45.26
2023-05-21T14:19:49.429Z,44.87
2023-05-21T14:22:21.358Z,45.00
2023-05-21T14:25:05.877Z,44.81
2023-05-21T14:27:37.492Z,44.45
2023-05-21T14:30:07.915Z,44.19
2023-05-21T14:32:48.713Z,44.25
2023-05-21T14:35:18.358Z,44.08
2023-05-21T14:37:49.855Z,44.13
2023-05-21T14:40:19.416Z,44.16
2023-05-21T14:42:56.959Z,44.28
2023-05-21T14:45:26.347Z,43.98
2023-05-21T14:47:55.730Z,44.14
2023-05-21T14:50:25.237Z,44.42
2023-05-21T14:52:56.589Z,45.22
2023-05-21T14:55:26.523Z,45.32
2023-05-21T14:58:15.751Z,45.68
2023-05-21T15:00:59.993Z,45.76
2023-05-21T15:03:29.672Z,46.69
2023-05-21T15:06:04.891Z,47.18
2023-05-21T15:08:36.477Z,47.71
2023-05-21T15:11:07.317Z,47.41
2023-05-21T15:13:36.809Z,47.81
2023-05-21T15:16:06.840Z,48.93
2023-05-21T15:18:36.350Z,48.87
2023-05-21T15:21:06.855Z,49.79
2023-05-21T15:23:45.385Z,49.55
2023-05-21T15:26:14.300Z,48.55
2023-05-21T15:28:43.804Z,49.74
2023-05-21T15:31:28.375Z,49.71
2023-05-21T15:33:59.671Z,49.96
2023-05-21T15:36:30.307Z,50.56
2023-05-21T15:39:03.259Z,50.36
2023-05-21T15:41:32.721Z,50.31
2023-05-21T15:44:02.127Z,50.80
2023-05-21T15:46:31.775Z,51.22
2023-05-21T15:49:01.506Z,51.34
2023-05-21T15:51:31.548Z,51.35
2023-05-21T15:54:02.926Z,51.59
2023-05-21T15:56:32.350Z,51.53
2023-05-21T15:59:01.919Z,51.52
2023-05-21T16:01:36.760Z,51.36
2023-05-21T16:04:06.518Z,51.27
2023-05-21T16:06:35.903Z,51.58
2023-05-21T16:09:07.447Z,52.68
2023-05-21T16:11:37.291Z,51.99
2023-05-21T16:14:07.283Z,52.50
2023-05-21T16:16:36.711Z,52.48
2023-05-21T16:19:06.270Z,53.07
2023-05-21T16:21:35.559Z,52.87
2023-05-21T16:24:07.063Z,53.71
2023-05-21T16:26:36.200Z,52.90
2023-05-21T16:29:05.587Z,53.99
2023-05-21T16:31:45.428Z,54.37
2023-05-21T16:34:14.766Z,55.04
2023-05-21T16:36:44.033Z,54.90
2023-05-21T16:39:20.522Z,55.89
2023-05-21T16:41:49.951Z,55.47
2023-05-21T16:44:20.088Z,55.55
2023-05-21T16:46:49.718Z,55.42
2023-05-21T16:49:19.019Z,55.14
2023-05-21T16:51:48.319Z,54.95
2023-05-21T16:54:19.574Z,55.85
2023-05-21T16:56:49.100Z,56.21
2023-05-21T16:59:19.004Z,56.19
2023-05-21T17:01:53.656Z,56.37
2023-05-21T17:04:23.024Z,57.22
2023-05-21T17:06:52.412Z,57.82
2023-05-21T17:09:23.827Z,58.46
2023-05-21T17:11:58.175Z,58.89
2023-05-21T17:17:08.347Z,60.93
2023-05-21T17:19:38.491Z,61.43
2023-05-21T17:22:08.006Z,62.16
2023-05-21T17:24:39.284Z,63.08
2023-05-21T17:27:08.729Z,63.82
2023-05-21T17:29:38.186Z,64.78
2023-05-21T17:32:08.505Z,65.48
2023-05-21T17:34:38.158Z,65.50
2023-05-21T17:37:08.051Z,66.37
2023-05-21T17:39:44.639Z,66.76
2023-05-21T17:42:14.055Z,67.20
2023-05-21T17:44:43.365Z,67.26
2023-05-21T17:47:17.921Z,67.74
2023-05-21T17:49:47.464Z,68.29
2023-05-21T17:52:25.367Z,68.40
2023-05-21T17:54:56.779Z,69.24
2023-05-21T17:57:26.440Z,68.94
2023-05-21T17:59:56.013Z,68.65
2023-05-21T18:05:02.367Z,69.55
2023-05-21T18:07:33.600Z,69.42
2023-05-21T18:10:11.052Z,70.27
2023-05-21T18:12:41.703Z,70.39
2023-05-21T18:15:12.031Z,70.62
2023-05-21T18:17:41.431Z,70.14
2023-05-21T18:20:11.672Z,70.43
2023-05-21T18:22:46.715Z,70.82
2023-05-21T18:25:18.048Z,71.15
2023-05-21T18:27:47.701Z,70.83
2023-05-21T18:30:17.895Z,70.75
2023-05-21T18:32:47.394Z,71.08
2023-05-21T18:35:16.999Z,71.97
2023-05-21T18:37:48.377Z,72.13
2023-05-21T18:40:21.475Z,73.34
2023-05-21T18:42:51.062Z,73.11
2023-05-21T18:45:20.363Z,73.87
2023-05-21T18:47:50.929Z,74.47
2023-05-21T18:50:25.689Z,74.47
2023-05-21T18:53:00.211Z,75.09
2023-05-21T18:55:31.673Z,76.27
2023-05-21T18:58:01.355Z,76.16
2023-05-21T19:00:31.106Z,76.00
2023-05-21T19:03:05.886Z,77.54
2023-05-21T19:05:35.388Z,76.67
2023-05-21T19:08:04.832Z,77.56
2023-05-21T19:10:39.030Z,78.70
2023-05-21T19:13:08.746Z,78.59
2023-05-21T19:15:38.120Z,79.45
2023-05-21T19:18:18.974Z,79.95
2023-05-21T19:20:48.414Z,80.22
2023-05-21T19:23:18.139Z,81.07
2023-05-21T19:25:50.251Z,82.17
2023-05-21T19:28:24.654Z,83.29
2023-05-21T19:30:54.271Z,82.64
2023-05-21T19:33:23.721Z,83.08
2023-05-21T19:35:58.120Z,82.96
2023-05-21T19:38:27.506Z,82.73
2023-05-21T19:41:04.215Z,83.93
2023-05-21T19:43:33.762Z,83.45
2023-05-21T19:46:03.646Z,84.12
2023-05-21T19:48:34.678Z,83.98
2023-05-21T19:51:04.249Z,84.02
2023-05-21T19:53:34.542Z,83.68
2023-05-21T19:56:11.784Z,83.83
2023-05-21T19:58:41.514Z,83.45
2023-05-21T20:01:11.177Z,83.52
2023-05-21T20:03:42.555Z,83.15
2023-05-21T20:06:18.625Z,82.69
2023-05-21T20:08:48.217Z,83.03
2023-05-21T20:11:21.094Z,83.68
2023-05-21T20:13:56.998Z,83.22
2023-05-21T20:16:26.841Z,83.87
2023-05-21T20:19:01.683Z,84.33
2023-05-21T20:21:32.269Z,83.82
2023-05-21T20:24:10.822Z,84.45
2023-05-21T20:26:44.754Z,84.34
2023-05-21T20:29:14.184Z,84.72
2023-05-21T20:31:43.572Z,84.47
2023-05-21T20:34:13.210Z,85.39
2023-05-21T20:36:43.201Z,85.44
2023-05-21T20:39:13.710Z,85.32
2023-05-21T20:41:46.737Z,86.36
2023-05-21T20:44:16.063Z,85.41
2023-05-21T20:46:46.088Z,84.33
2023-05-21T20:49:17.293Z,83.83
2023-05-21T20:51:52.154Z,84.94
2023-05-21T20:54:21.847Z,84.32
2023-05-21T20:56:54.531Z,84.47
2023-05-21T21:01:59.191Z,81.61
2023-05-21T21:04:28.633Z,81.52
2023-05-21T21:09:46.353Z,81.26
2023-05-21T21:12:26.566Z,81.48
2023-05-21T21:14:57.399Z,81.46
2023-05-21T21:17:26.808Z,80.92
2023-05-21T21:19:56.083Z,80.71
2023-05-21T21:22:25.386Z,80.27
2023-05-21T21:24:59.935Z,80.09
2023-05-21T21:27:31.277Z,80.75
2023-05-21T21:30:00.831Z,80.34
2023-05-21T21:32:30.644Z,80.92
2023-05-21T21:35:00.159Z,81.39
2023-05-21T21:37:29.502Z,81.77
2023-05-21T21:39:59.045Z,81.98
2023-05-21T21:42:30.485Z,81.93
2023-05-21T21:44:59.957Z,82.11
2023-05-21T21:47:29.361Z,81.61
2023-05-21T21:52:49.211Z,81.98
2023-05-21T21:55:19.193Z,82.04
2023-05-21T21:57:50.474Z,82.07
2023-05-21T22:00:20.864Z,81.85
2023-05-21T22:02:50.128Z,81.93
2023-05-21T22:05:19.520Z,82.89
2023-05-21T22:07:49.041Z,83.02
2023-05-21T22:10:18.741Z,83.74
2023-05-21T22:15:36.833Z,84.56
2023-05-21T22:18:09.173Z,84.69
2023-05-21T22:20:38.762Z,84.28
2023-05-21T22:23:08.394Z,84.88
2023-05-21T22:25:44.084Z,84.54
2023-05-21T22:28:17.203Z,85.85
2023-05-21T22:30:46.724Z,85.75
2023-05-21T22:33:16.239Z,86.02
2023-05-21T22:35:50.780Z,85.93
2023-05-21T22:38:25.451Z,85.75
2023-05-21T22:41:00.720Z,85.50
2023-05-21T22:43:33.092Z,85.37
2023-05-21T22:46:03.265Z,85.19
2023-05-21T22:48:45.801Z,87.12
2023-05-21T22:51:15.355Z,86.08
2023-05-21T22:53:44.722Z,87.19
2023-05-21T22:56:16.569Z,87.30
2023-05-21T22:58:47.457Z,87.94
2023-05-21T23:01:16.828Z,87.62
2023-05-21T23:03:46.270Z,88.01
2023-05-21T23:06:20.887Z,87.77
2023-05-21T23:08:50.171Z,87.21
2023-05-21T23:11:19.591Z,87.74
2023-05-21T23:13:50.866Z,88.55
2023-05-21T23:16:22.349Z,88.54
2023-05-21T23:18:57.485Z,88.40
2023-05-21T23:21:26.988Z,87.85
2023-05-21T23:23:56.228Z,87.05
2023-05-21T23:26:30.778Z,86.64
2023-05-21T23:29:02.260Z,86.72
2023-05-21T23:31:37.702Z,86.75
2023-05-21T23:34:07.179Z,86.23
2023-05-21T23:36:36.502Z,85.54
2023-05-21T23:39:11.082Z,85.66
2023-05-21T23:41:40.583Z,85.19
2023-05-21T23:44:12.340Z,84.84
2023-05-21T23:46:41.810Z,84.10
2023-05-21T23:49:11.260Z,84.72
2023-05-21T23:51:40.724Z,85.40
2023-05-21T23:54:10.061Z,85.76
2023-05-21T23:56:39.441Z,86.23
2023-05-21T23:59:14.615Z,86.51
